Opelousas, LA

9:42 PM CST on December 28, 2014 (GMT -0600)
Gulino Street | Change Station
CLOSE
Current Station
Personal Weather Station
Location: Opelousas, LA
Elevation: 89 ft
Nearby Weather Stations

Elev 89 ft 30.55 °N, 92.07 °W | Updated 17 seconds ago

Light Rain
Light Rain
48.0 °F
Feels Like 48 °F
N
1.0
Wind Variable Wind from North
Gusts 1.0 mph

Today
High -- | Low -- °F
--% Chance of Precip.
Yesterday
High -- | Low -- °F
Precip. -- in
7:04 AM 5:15 PM
First Quarter, 54% visible
Pressure 30.11 in
Visibility 10.0 miles
Clouds Scattered Clouds 700 ft
Scattered Clouds 1900 ft
Overcast 10000 ft
Windchill 48 °F
Dew Point 48 °F
Humidity 99%
Rainfall 0.11 in
Snow Depth Not available.
UV 0 out of 12
Pollen .60 out of 12
Air Quality Not available.
Flu Activity Not available.
METAR KOPL 290335Z AUTO 09006KT 10SM -RA SCT007 SCT019 OVC100 08/08 A3011 RMK AO2 P0001 T00820076

More Conditions Fewer Conditions

Pressure 30.11 in
Visibility 10.0 miles
Clouds Scattered Clouds 700 ft
Scattered Clouds 1900 ft
Overcast 10000 ft
Windchill 48 °F
Dew Point 48 °F
Humidity 99%
Rainfall 0.11 in
Snow Depth Not available.
UV 0 out of 12
Pollen .60 out of 12
Air Quality Not available.
Flu Activity Not available.
METAR KOPL 290335Z AUTO 09006KT 10SM -RA SCT007 SCT019 OVC100 08/08 A3011 RMK AO2 P0001 T00820076

More Conditions Fewer Conditions

10-Day Weather Forecast

Almanac

Astronomy

Dec. 28, 2014 Rise Set
Actual Time
Civil Twilight
Nautical Twilight
Astronomical Twilight
Moon
Length of Visible Light
Length of Day
Tomorrow will be .
, % of the Moon is Illuminated

Today's Extremes

State Highs State Lows

Community

WunderPhotos

Upload Photos

1,781,520 photos uploaded!

WunderBlogs® & News

Nearby

Air Quality

  Air Quality AQ Index Pollutant
Not available.

Snow Depth

Station Depth Elevation

Earthquake Activity

City Distance Mag. Time & Date
Minimum magnitude displayed is 2.5.

Coastal Water Temperatures

Place Temperature

Nearby Weather Stations